Quick Links (Output Below):   Max & Min Temps   /   Climate Reports   /   Zone Forecasts
River Forecasts   /   Forestry Forecasts   /   Aviation Forecasts   /   Radars   /   Features

Terminal Aerodrome Forecast (Highfill)

Pick a Site:
Arkadelphia | El Dorado | Fayetteville | Fort Smith | Harrison | Highfill | Hot Springs | Jonesboro
Little Rock | Monticello | Mountain Home | Pine Bluff | Texarkana
 Forecast 

KXNA 271135Z 2712/2812 00000KT P6SM FEW250
     FM271400 VRB04KT P6SM FEW250
     FM271700 13008KT P6SM SCT050 SCT250
     FM280200 15003KT P6SM SCT250=


 Latest METARs (Observations) 
How to Decode METARs
12Z KXNA 271153Z 00000KT 10SM CLR 20/18 A3010 RMK AO2 SLP178 T02000183
         10233 20200 55004
         
11Z KXNA 271053Z 00000KT 10SM CLR 22/19 A3010 RMK AO2 SLP174
         T02170189
         
10Z KXNA 270953Z AUTO 00000KT 9SM CLR 21/19 A3011 RMK AO2 SLP176
         T02110189
         
09Z KXNA 270853Z AUTO 00000KT 10SM CLR 22/19 A3012 RMK AO2 SLP180
         T02170189 51006
         
08Z KXNA 270753Z AUTO 00000KT 10SM CLR 22/19 A3011 RMK AO2 SLP177
         T02170189
         
07Z KXNA 270653Z AUTO 35003KT 10SM CLR 23/18 A3011 RMK AO2 SLP177
         T02280183
         
06Z KXNA 270553Z AUTO 36003KT 10SM CLR 22/18 A3010 RMK AO2 SLP175
         T02170183 10333 20217 403610200 51004
         
05Z KXNA 270453Z AUTO 00000KT 10SM CLR 24/18 A3010 RMK AO2 SLP174
         T02390183
         
04Z KXNA 270353Z AUTO 00000KT 10SM CLR 26/19 A3010 RMK AO2 SLP173
         T02560189
         
03Z KXNA 270253Z 19004KT 10SM CLR 27/18 A3009 RMK AO2 LTG DSNT N
         SLP170 T02720178 51016
         
***** Today's Observations (Above) *****


Back to Main Page
http://www.srh.noaa.gov/lzk/qfcst.php

USA.gov is the U.S. government's official web portal to all federal, state and local government web resources and services.